sensor_id;sensor_type;location;lat;lon;timestamp;pressure;altitude;pressure_sealevel;temperature;humidity
50356;BME280;36264;51.296;-0.602;2023-02-12T00:01:00;103570.44;;;9.12;100.00
50356;BME280;36264;51.296;-0.602;2023-02-12T00:03:26;103573.00;;;9.11;100.00
50356;BME280;36264;51.296;-0.602;2023-02-12T00:05:51;103568.63;;;9.10;100.00
50356;BME280;36264;51.296;-0.602;2023-02-12T00:08:17;103562.63;;;9.11;100.00
50356;BME280;36264;51.296;-0.602;2023-02-12T00:10:43;103559.19;;;9.13;100.00
50356;BME280;36264;51.296;-0.602;2023-02-12T00:13:10;103566.94;;;9.12;100.00
50356;BME280;36264;51.296;-0.602;2023-02-12T00:15:40;103560.06;;;9.12;100.00
50356;BME280;36264;51.296;-0.602;2023-02-12T00:18:06;103569.47;;;9.09;100.00
50356;BME280;36264;51.296;-0.602;2023-02-12T00:20:31;103576.34;;;9.06;100.00
50356;BME280;36264;51.296;-0.602;2023-02-12T00:22:57;103576.34;;;9.06;100.00
50356;BME280;36264;51.296;-0.602;2023-02-12T00:25:22;103572.91;;;9.06;100.00
50356;BME280;36264;51.296;-0.602;2023-02-12T00:27:48;103567.78;;;9.09;100.00
50356;BME280;36264;51.296;-0.602;2023-02-12T00:30:13;103569.50;;;9.10;100.00
50356;BME280;36264;51.296;-0.602;2023-02-12T00:32:39;103573.03;;;9.12;100.00
50356;BME280;36264;51.296;-0.602;2023-02-12T00:35:05;103569.50;;;9.10;100.00
50356;BME280;36264;51.296;-0.602;2023-02-12T00:37:30;103566.03;;;9.10;100.00
50356;BME280;36264;51.296;-0.602;2023-02-12T00:39:56;103566.00;;;9.08;100.00
50356;BME280;36264;51.296;-0.602;2023-02-12T00:42:21;103575.53;;;9.07;100.00
50356;BME280;36264;51.296;-0.602;2023-02-12T00:44:46;103564.31;;;9.10;100.00
50356;BME280;36264;51.296;-0.602;2023-02-12T00:47:12;103567.75;;;9.07;100.00
50356;BME280;36264;51.296;-0.602;2023-02-12T00:49:37;103563.38;;;9.06;100.00
50356;BME280;36264;51.296;-0.602;2023-02-12T00:52:03;103567.78;;;9.09;100.00
50356;BME280;36264;51.296;-0.602;2023-02-12T00:54:30;103559.97;;;9.07;100.00
50356;BME280;36264;51.296;-0.602;2023-02-12T00:56:56;103561.66;;;9.07;100.00
50356;BME280;36264;51.296;-0.602;2023-02-12T00:59:22;103561.72;;;9.10;100.00
50356;BME280;36264;51.296;-0.602;2023-02-12T01:01:48;103559.09;;;9.09;100.00
50356;BME280;36264;51.296;-0.602;2023-02-12T01:04:14;103563.41;;;9.08;100.00
50356;BME280;36264;51.296;-0.602;2023-02-12T01:06:39;103558.25;;;9.08;100.00
50356;BME280;36264;51.296;-0.602;2023-02-12T01:09:05;103548.75;;;9.10;100.00
50356;BME280;36264;51.296;-0.602;2023-02-12T01:11:30;103547.91;;;9.10;100.00
50356;BME280;36264;51.296;-0.602;2023-02-12T01:13:55;103558.28;;;9.10;100.00
50356;BME280;36264;51.296;-0.602;2023-02-12T01:16:22;103566.91;;;9.10;100.00
50356;BME280;36264;51.296;-0.602;2023-02-12T01:18:49;103557.44;;;9.11;100.00
50356;BME280;36264;51.296;-0.602;2023-02-12T01:21:34;103563.56;;;9.14;100.00
50356;BME280;36264;51.296;-0.602;2023-02-12T01:24:00;103565.06;;;9.03;100.00
50356;BME280;36264;51.296;-0.602;2023-02-12T01:26:26;103565.88;;;9.02;100.00
50356;BME280;36264;51.296;-0.602;2023-02-12T01:28:58;103570.19;;;9.00;100.00
50356;BME280;36264;51.296;-0.602;2023-02-12T01:31:27;103567.50;;;8.97;100.00
50356;BME280;36264;51.296;-0.602;2023-02-12T01:33:55;103563.19;;;8.97;100.00
50356;BME280;36264;51.296;-0.602;2023-02-12T01:36:21;103565.69;;;8.93;100.00
50356;BME280;36264;51.296;-0.602;2023-02-12T01:38:47;103563.09;;;8.93;100.00
50356;BME280;36264;51.296;-0.602;2023-02-12T01:41:15;103560.53;;;8.94;100.00
50356;BME280;36264;51.296;-0.602;2023-02-12T01:43:41;103566.59;;;8.93;100.00
50356;BME280;36264;51.296;-0.602;2023-02-12T01:46:09;103565.78;;;8.97;100.00
50356;BME280;36264;51.296;-0.602;2023-02-12T01:48:45;103558.84;;;8.95;100.00
50356;BME280;36264;51.296;-0.602;2023-02-12T01:51:16;103551.09;;;8.96;100.00
50356;BME280;36264;51.296;-0.602;2023-02-12T01:53:45;103558.81;;;8.93;100.00
50356;BME280;36264;51.296;-0.602;2023-02-12T01:56:12;103563.03;;;8.89;100.00
50356;BME280;36264;51.296;-0.602;2023-02-12T01:58:40;103557.91;;;8.93;100.00
50356;BME280;36264;51.296;-0.602;2023-02-12T02:01:09;103553.69;;;8.96;100.00
50356;BME280;36264;51.296;-0.602;2023-02-12T02:03:38;103562.28;;;8.95;100.00
50356;BME280;36264;51.296;-0.602;2023-02-12T02:06:11;103558.88;;;8.96;100.00
50356;BME280;36264;51.296;-0.602;2023-02-12T02:08:38;103569.22;;;8.95;100.00
50356;BME280;36264;51.296;-0.602;2023-02-12T02:11:04;103563.16;;;8.96;100.00
50356;BME280;36264;51.296;-0.602;2023-02-12T02:13:50;103560.56;;;8.96;100.00
50356;BME280;36264;51.296;-0.602;2023-02-12T02:16:35;103555.44;;;8.99;100.00
50356;BME280;36264;51.296;-0.602;2023-02-12T02:19:10;103556.38;;;9.01;100.00
50356;BME280;36264;51.296;-0.602;2023-02-12T02:39:02;103551.06;;;8.95;100.00
50356;BME280;36264;51.296;-0.602;2023-02-12T02:41:50;103558.91;;;8.98;100.00
50356;BME280;36264;51.296;-0.602;2023-02-12T02:44:32;103560.59;;;8.97;100.00
50356;BME280;36264;51.296;-0.602;2023-02-12T02:47:00;103554.56;;;8.97;100.00
50356;BME280;36264;51.296;-0.602;2023-02-12T02:49:40;103559.78;;;8.98;100.00
50356;BME280;36264;51.296;-0.602;2023-02-12T02:52:15;103558.91;;;8.98;100.00
50356;BME280;36264;51.296;-0.602;2023-02-12T02:54:48;103551.09;;;8.96;100.00
50356;BME280;36264;51.296;-0.602;2023-02-12T02:57:20;103548.50;;;8.96;100.00
50356;BME280;36264;51.296;-0.602;2023-02-12T03:00:04;103548.47;;;8.95;100.00
50356;BME280;36264;51.296;-0.602;2023-02-12T03:02:35;103549.31;;;8.94;100.00
50356;BME280;36264;51.296;-0.602;2023-02-12T03:05:26;103547.59;;;8.96;100.00
50356;BME280;36264;51.296;-0.602;2023-02-12T03:07:54;103547.53;;;8.93;100.00
50356;BME280;36264;51.296;-0.602;2023-02-12T03:10:29;103537.13;;;8.91;100.00
50356;BME280;36264;51.296;-0.602;2023-02-12T03:13:00;103538.81;;;8.87;100.00
50356;BME280;36264;51.296;-0.602;2023-02-12T03:18:24;103537.22;;;8.94;100.00
50356;BME280;36264;51.296;-0.602;2023-02-12T03:20:54;103532.91;;;8.95;100.00
50356;BME280;36264;51.296;-0.602;2023-02-12T03:23:25;103527.75;;;8.95;100.00
50356;BME280;36264;51.296;-0.602;2023-02-12T03:28:27;103527.69;;;8.93;100.00
50356;BME280;36264;51.296;-0.602;2023-02-12T03:37:07;103526.75;;;8.89;100.00
50356;BME280;36264;51.296;-0.602;2023-02-12T03:39:38;103529.41;;;8.93;100.00
50356;BME280;36264;51.296;-0.602;2023-02-12T03:42:08;103526.75;;;8.89;100.00
50356;BME280;36264;51.296;-0.602;2023-02-12T03:47:21;103533.78;;;8.95;100.00
50356;BME280;36264;51.296;-0.602;2023-02-12T03:50:14;103528.69;;;9.00;100.00
50356;BME280;36264;51.296;-0.602;2023-02-12T03:52:37;103524.28;;;8.96;100.00
50356;BME280;36264;51.296;-0.602;2023-02-12T03:55:03;103516.56;;;8.99;100.00
50356;BME280;36264;51.296;-0.602;2023-02-12T03:57:32;103515.72;;;9.00;100.00
50356;BME280;36264;51.296;-0.602;2023-02-12T04:00:04;103519.09;;;8.96;100.00
50356;BME280;36264;51.296;-0.602;2023-02-12T04:02:30;103515.59;;;8.94;100.00
50356;BME280;36264;51.296;-0.602;2023-02-12T04:04:56;103514.75;;;8.93;100.00
50356;BME280;36264;51.296;-0.602;2023-02-12T04:07:21;103523.41;;;8.95;100.00
50356;BME280;36264;51.296;-0.602;2023-02-12T04:09:47;103526.88;;;8.96;100.00
50356;BME280;36264;51.296;-0.602;2023-02-12T04:12:51;103522.69;;;9.01;100.00
50356;BME280;36264;51.296;-0.602;2023-02-12T04:21:06;103517.41;;;8.96;100.00
50356;BME280;36264;51.296;-0.602;2023-02-12T04:23:49;103520.88;;;8.98;100.00
50356;BME280;36264;51.296;-0.602;2023-02-12T04:29:34;103525.13;;;8.93;100.00
50356;BME280;36264;51.296;-0.602;2023-02-12T04:32:14;103527.66;;;8.92;100.00
50356;BME280;36264;51.296;-0.602;2023-02-12T04:37:38;103530.25;;;8.92;100.00
50356;BME280;36264;51.296;-0.602;2023-02-12T04:40:10;103527.63;;;8.90;100.00
50356;BME280;36264;51.296;-0.602;2023-02-12T04:42:44;103524.16;;;8.89;100.00
50356;BME280;36264;51.296;-0.602;2023-02-12T04:45:11;103531.06;;;8.89;100.00
50356;BME280;36264;51.296;-0.602;2023-02-12T04:47:38;103520.59;;;8.84;100.00
50356;BME280;36264;51.296;-0.602;2023-02-12T04:50:04;103524.94;;;8.85;100.00
50356;BME280;36264;51.296;-0.602;2023-02-12T04:52:29;103527.47;;;8.82;100.00
50356;BME280;36264;51.296;-0.602;2023-02-12T04:54:54;103531.78;;;8.82;100.00
50356;BME280;36264;51.296;-0.602;2023-02-12T04:57:20;103527.44;;;8.81;100.00
50356;BME280;36264;51.296;-0.602;2023-02-12T04:59:45;103529.16;;;8.80;100.00
50356;BME280;36264;51.296;-0.602;2023-02-12T05:02:10;103530.03;;;8.81;100.00
50356;BME280;36264;51.296;-0.602;2023-02-12T05:04:36;103526.56;;;8.80;100.00
50356;BME280;36264;51.296;-0.602;2023-02-12T05:07:01;103534.38;;;8.82;100.00
50356;BME280;36264;51.296;-0.602;2023-02-12T05:09:26;103539.59;;;8.83;100.00
50356;BME280;36264;51.296;-0.602;2023-02-12T05:11:52;103526.63;;;8.82;100.00
50356;BME280;36264;51.296;-0.602;2023-02-12T05:14:17;103524.06;;;8.83;100.00
50356;BME280;36264;51.296;-0.602;2023-02-12T05:16:42;103521.47;;;8.85;100.00
50356;BME280;36264;51.296;-0.602;2023-02-12T05:19:09;103518.88;;;8.85;100.00
50356;BME280;36264;51.296;-0.602;2023-02-12T05:21:35;103517.94;;;8.81;100.00
50356;BME280;36264;51.296;-0.602;2023-02-12T05:24:01;103519.72;;;8.84;100.00
50356;BME280;36264;51.296;-0.602;2023-02-12T05:26:27;103518.91;;;8.86;100.00
50356;BME280;36264;51.296;-0.602;2023-02-12T05:28:52;103523.19;;;8.84;100.00
50356;BME280;36264;51.296;-0.602;2023-02-12T05:31:19;103526.66;;;8.83;100.00
50356;BME280;36264;51.296;-0.602;2023-02-12T05:33:45;103517.13;;;8.84;100.00
50356;BME280;36264;51.296;-0.602;2023-02-12T05:36:18;103518.94;;;8.88;100.00
50356;BME280;36264;51.296;-0.602;2023-02-12T05:38:44;103520.69;;;8.89;100.00
50356;BME280;36264;51.296;-0.602;2023-02-12T05:41:18;103529.44;;;8.94;100.00
50356;BME280;36264;51.296;-0.602;2023-02-12T05:43:44;103517.25;;;8.88;100.00
50356;BME280;36264;51.296;-0.602;2023-02-12T05:46:10;103520.59;;;8.84;100.00
50356;BME280;36264;51.296;-0.602;2023-02-12T05:48:36;103524.94;;;8.85;100.00
50356;BME280;36264;51.296;-0.602;2023-02-12T05:53:29;103517.03;;;8.79;100.00
50356;BME280;36264;51.296;-0.602;2023-02-12T05:55:54;103525.63;;;8.77;100.00
50356;BME280;36264;51.296;-0.602;2023-02-12T05:58:19;103522.22;;;8.79;100.00
50356;BME280;36264;51.296;-0.602;2023-02-12T06:00:45;103522.22;;;8.79;100.00
50356;BME280;36264;51.296;-0.602;2023-02-12T06:03:10;103527.41;;;8.79;100.00
50356;BME280;36264;51.296;-0.602;2023-02-12T06:05:35;103522.19;;;8.78;100.00
50356;BME280;36264;51.296;-0.602;2023-02-12T06:08:01;103523.88;;;8.76;100.00
50356;BME280;36264;51.296;-0.602;2023-02-12T06:10:26;103527.34;;;8.76;100.00
50356;BME280;36264;51.296;-0.602;2023-02-12T06:12:55;103529.97;;;8.78;100.00
50356;BME280;36264;51.296;-0.602;2023-02-12T06:15:20;103531.56;;;8.71;100.00
50356;BME280;36264;51.296;-0.602;2023-02-12T06:17:45;103535.75;;;8.64;100.00
50356;BME280;36264;51.296;-0.602;2023-02-12T06:20:11;103534.84;;;8.64;100.00
50356;BME280;36264;51.296;-0.602;2023-02-12T06:22:36;103529.69;;;8.65;100.00
50356;BME280;36264;51.296;-0.602;2023-02-12T06:25:03;103530.56;;;8.66;100.00
50356;BME280;36264;51.296;-0.602;2023-02-12T06:27:28;103526.25;;;8.65;100.00
50356;BME280;36264;51.296;-0.602;2023-02-12T06:29:54;103522.75;;;8.63;100.00
50356;BME280;36264;51.296;-0.602;2023-02-12T06:32:19;103519.25;;;8.62;100.00
50356;BME280;36264;51.296;-0.602;2023-02-12T06:34:44;103519.25;;;8.62;100.00
50356;BME280;36264;51.296;-0.602;2023-02-12T06:37:10;103513.28;;;8.65;100.00
50356;BME280;36264;51.296;-0.602;2023-02-12T06:39:36;103515.09;;;8.69;100.00
50356;BME280;36264;51.296;-0.602;2023-02-12T06:42:02;103515.94;;;8.68;100.00
50356;BME280;36264;51.296;-0.602;2023-02-12T06:44:27;103510.69;;;8.65;100.00
50356;BME280;36264;51.296;-0.602;2023-02-12T06:46:53;103508.97;;;8.65;100.00
50356;BME280;36264;51.296;-0.602;2023-02-12T06:49:18;103508.91;;;8.62;100.00
50356;BME280;36264;51.296;-0.602;2023-02-12T06:51:44;103506.31;;;8.62;100.00
50356;BME280;36264;51.296;-0.602;2023-02-12T06:54:14;103499.53;;;8.69;100.00
50356;BME280;36264;51.296;-0.602;2023-02-12T06:56:39;103507.28;;;8.67;100.00
50356;BME280;36264;51.296;-0.602;2023-02-12T06:59:05;103506.41;;;8.67;100.00
50356;BME280;36264;51.296;-0.602;2023-02-12T07:01:30;103511.63;;;8.68;100.00
50356;BME280;36264;51.296;-0.602;2023-02-12T07:03:58;103506.50;;;8.72;100.00
50356;BME280;36264;51.296;-0.602;2023-02-12T07:06:24;103501.28;;;8.70;100.00
50356;BME280;36264;51.296;-0.602;2023-02-12T07:08:51;103499.47;;;8.66;100.00
50356;BME280;36264;51.296;-0.602;2023-02-12T07:11:17;103504.69;;;8.67;100.00
50356;BME280;36264;51.296;-0.602;2023-02-12T07:13:43;103510.63;;;8.62;100.00
50356;BME280;36264;51.296;-0.602;2023-02-12T07:16:12;103514.13;;;8.64;100.00
50356;BME280;36264;51.296;-0.602;2023-02-12T07:18:38;103514.97;;;8.63;100.00
50356;BME280;36264;51.296;-0.602;2023-02-12T07:21:05;103510.75;;;8.68;100.00
50356;BME280;36264;51.296;-0.602;2023-02-12T07:23:31;103517.63;;;8.67;100.00
50356;BME280;36264;51.296;-0.602;2023-02-12T07:25:58;103520.22;;;8.67;100.00
50356;BME280;36264;51.296;-0.602;2023-02-12T07:28:24;103528.00;;;8.67;100.00
50356;BME280;36264;51.296;-0.602;2023-02-12T07:30:51;103523.75;;;8.69;100.00
50356;BME280;36264;51.296;-0.602;2023-02-12T07:33:17;103520.28;;;8.70;100.00
50356;BME280;36264;51.296;-0.602;2023-02-12T07:35:42;103530.63;;;8.69;100.00
50356;BME280;36264;51.296;-0.602;2023-02-12T07:38:08;103522.91;;;8.72;100.00
50356;BME280;36264;51.296;-0.602;2023-02-12T07:40:33;103524.63;;;8.70;100.00
50356;BME280;36264;51.296;-0.602;2023-02-12T07:42:59;103525.50;;;8.72;100.00
50356;BME280;36264;51.296;-0.602;2023-02-12T07:45:24;103523.66;;;8.65;100.00
50356;BME280;36264;51.296;-0.602;2023-02-12T07:47:49;103525.41;;;8.67;100.00
50356;BME280;36264;51.296;-0.602;2023-02-12T07:50:15;103529.84;;;8.72;100.00
50356;BME280;36264;51.296;-0.602;2023-02-12T07:52:40;103530.69;;;8.72;100.00
50356;BME280;36264;51.296;-0.602;2023-02-12T07:55:06;103527.31;;;8.75;100.00
50356;BME280;36264;51.296;-0.602;2023-02-12T07:57:33;103535.16;;;8.78;100.00
50356;BME280;36264;51.296;-0.602;2023-02-12T07:59:59;103538.50;;;8.74;100.00
50356;BME280;36264;51.296;-0.602;2023-02-12T08:02:24;103529.91;;;8.75;100.00
50356;BME280;36264;51.296;-0.602;2023-02-12T08:04:57;103534.28;;;8.77;100.00
50356;BME280;36264;51.296;-0.602;2023-02-12T08:07:23;103537.63;;;8.73;100.00
50356;BME280;36264;51.296;-0.602;2023-02-12T08:09:49;103544.53;;;8.71;100.00
50356;BME280;36264;51.296;-0.602;2023-02-12T08:12:16;103531.59;;;8.73;100.00
50356;BME280;36264;51.296;-0.602;2023-02-12T08:14:41;103530.81;;;8.77;100.00
50356;BME280;36264;51.296;-0.602;2023-02-12T08:17:07;103544.78;;;8.83;100.00
50356;BME280;36264;51.296;-0.602;2023-02-12T08:19:33;103533.59;;;8.86;100.00
50356;BME280;36264;51.296;-0.602;2023-02-12T08:21:58;103532.78;;;8.88;100.00
50356;BME280;36264;51.296;-0.602;2023-02-12T08:24:24;103541.38;;;8.86;100.00
50356;BME280;36264;51.296;-0.602;2023-02-12T08:26:50;103532.78;;;8.88;100.00
50356;BME280;36264;51.296;-0.602;2023-02-12T08:29:18;103540.66;;;8.93;100.00
50356;BME280;36264;51.296;-0.602;2023-02-12T08:31:46;103538.94;;;8.94;100.00
50356;BME280;36264;51.296;-0.602;2023-02-12T08:34:20;103542.53;;;9.00;100.00
50356;BME280;36264;51.296;-0.602;2023-02-12T08:36:47;103540.00;;;9.03;100.00
50356;BME280;36264;51.296;-0.602;2023-02-12T08:39:13;103545.22;;;9.05;100.00
50356;BME280;36264;51.296;-0.602;2023-02-12T08:41:39;103540.94;;;9.09;100.00
50356;BME280;36264;51.296;-0.602;2023-02-12T08:44:06;103546.22;;;9.13;100.00
50356;BME280;36264;51.296;-0.602;2023-02-12T08:46:43;103549.78;;;9.17;100.00
50356;BME280;36264;51.296;-0.602;2023-02-12T08:49:20;103547.31;;;9.24;100.00
50356;BME280;36264;51.296;-0.602;2023-02-12T08:51:48;103551.66;;;9.25;100.00
50356;BME280;36264;51.296;-0.602;2023-02-12T08:54:17;103547.41;;;9.29;100.00
50356;BME280;36264;51.296;-0.602;2023-02-12T08:56:43;103548.38;;;9.33;100.00
50356;BME280;36264;51.296;-0.602;2023-02-12T08:59:12;103551.91;;;9.38;100.00
50356;BME280;36264;51.296;-0.602;2023-02-12T09:01:38;103555.47;;;9.43;100.00
50356;BME280;36264;51.296;-0.602;2023-02-12T09:04:17;103560.75;;;9.49;100.00
50356;BME280;36264;51.296;-0.602;2023-02-12T09:06:44;103560.00;;;9.53;100.00
50356;BME280;36264;51.296;-0.602;2023-02-12T09:09:09;103559.09;;;9.53;100.00
50356;BME280;36264;51.296;-0.602;2023-02-12T09:11:35;103550.50;;;9.55;100.00
50356;BME280;36264;51.296;-0.602;2023-02-12T09:14:03;103555.03;;;9.67;100.00
50356;BME280;36264;51.296;-0.602;2023-02-12T09:16:31;103553.34;;;9.69;100.00
50356;BME280;36264;51.296;-0.602;2023-02-12T09:18:56;103552.44;;;9.69;100.00
50356;BME280;36264;51.296;-0.602;2023-02-12T09:21:22;103557.72;;;9.73;100.00
50356;BME280;36264;51.296;-0.602;2023-02-12T09:23:48;103554.38;;;9.79;100.00
50356;BME280;36264;51.296;-0.602;2023-02-12T09:26:17;103551.91;;;9.85;100.00
50356;BME280;36264;51.296;-0.602;2023-02-12T09:28:45;103553.63;;;9.86;100.00
50356;BME280;36264;51.296;-0.602;2023-02-12T09:31:13;103559.75;;;9.90;100.00
50356;BME280;36264;51.296;-0.602;2023-02-12T09:33:39;103558.97;;;9.95;100.00
50356;BME280;36264;51.296;-0.602;2023-02-12T09:36:11;103556.38;;;9.95;100.00
50356;BME280;36264;51.296;-0.602;2023-02-12T09:38:38;103554.66;;;9.94;100.00
50356;BME280;36264;51.296;-0.602;2023-02-12T09:52:59;103574.50;;;9.92;100.00
50356;BME280;36264;51.296;-0.602;2023-02-12T09:55:29;103568.47;;;9.93;100.00
50356;BME280;36264;51.296;-0.602;2023-02-12T09:57:55;103570.22;;;9.94;100.00
50356;BME280;36264;51.296;-0.602;2023-02-12T10:00:26;103568.56;;;10.00;100.00
50356;BME280;36264;51.296;-0.602;2023-02-12T10:02:53;103565.06;;;9.97;100.00
50356;BME280;36264;51.296;-0.602;2023-02-12T10:05:25;103567.69;;;10.01;100.00
50356;BME280;36264;51.296;-0.602;2023-02-12T10:11:14;103566.78;;;9.97;100.00
50356;BME280;36264;51.296;-0.602;2023-02-12T10:16:19;103577.34;;;10.08;100.00
50356;BME280;36264;51.296;-0.602;2023-02-12T10:19:07;103568.69;;;10.07;100.00
50356;BME280;36264;51.296;-0.602;2023-02-12T10:27:51;103564.28;;;10.02;100.00
50356;BME280;36264;51.296;-0.602;2023-02-12T10:30:24;103572.97;;;10.05;100.00
50356;BME280;36264;51.296;-0.602;2023-02-12T10:32:55;103566.91;;;10.03;100.00
50356;BME280;36264;51.296;-0.602;2023-02-12T10:35:24;103576.44;;;10.04;100.00
50356;BME280;36264;51.296;-0.602;2023-02-12T10:38:06;103573.84;;;10.04;100.00
50356;BME280;36264;51.296;-0.602;2023-02-12T10:40:43;103571.22;;;10.03;100.00
50356;BME280;36264;51.296;-0.602;2023-02-12T10:43:10;103572.06;;;10.02;100.00
50356;BME280;36264;51.296;-0.602;2023-02-12T10:45:38;103565.06;;;9.97;100.00
50356;BME280;36264;51.296;-0.602;2023-02-12T10:48:15;103559.91;;;10.01;100.00
50356;BME280;36264;51.296;-0.602;2023-02-12T10:53:31;103565.94;;;9.98;100.00
50356;BME280;36264;51.296;-0.602;2023-02-12T11:01:28;103573.00;;;10.07;100.00
50356;BME280;36264;51.296;-0.602;2023-02-12T11:03:55;103575.63;;;10.08;100.00
50356;BME280;36264;51.296;-0.602;2023-02-12T11:06:28;103569.66;;;10.14;100.00
50356;BME280;36264;51.296;-0.602;2023-02-12T11:08:56;103570.59;;;10.18;100.00
50356;BME280;36264;51.296;-0.602;2023-02-12T11:11:26;103572.38;;;10.20;100.00
50356;BME280;36264;51.296;-0.602;2023-02-12T11:16:32;103568.16;;;10.28;100.00
50356;BME280;36264;51.296;-0.602;2023-02-12T11:19:22;103563.88;;;10.32;100.00
50356;BME280;36264;51.296;-0.602;2023-02-12T11:21:48;103561.25;;;10.30;100.00
50356;BME280;36264;51.296;-0.602;2023-02-12T11:26:51;103559.50;;;10.28;100.00
50356;BME280;36264;51.296;-0.602;2023-02-12T11:29:22;103547.47;;;10.33;100.00
50356;BME280;36264;51.296;-0.602;2023-02-12T11:32:02;103545.78;;;10.35;100.00
50356;BME280;36264;51.296;-0.602;2023-02-12T11:34:28;103549.13;;;10.29;100.00
50356;BME280;36264;51.296;-0.602;2023-02-12T11:36:55;103554.44;;;10.34;100.00
50356;BME280;36264;51.296;-0.602;2023-02-12T11:39:25;103551.88;;;10.39;100.00
50356;BME280;36264;51.296;-0.602;2023-02-12T11:42:37;103543.19;;;10.37;100.00
50356;BME280;36264;51.296;-0.602;2023-02-12T11:44:41;103542.22;;;10.31;100.00
50356;BME280;36264;51.296;-0.602;2023-02-12T11:47:23;103538.84;;;10.34;100.00
50356;BME280;36264;51.296;-0.602;2023-02-12T11:49:56;103539.59;;;10.28;100.00
50356;BME280;36264;51.296;-0.602;2023-02-12T11:52:25;103546.50;;;10.26;100.00
50356;BME280;36264;51.296;-0.602;2023-02-12T11:54:54;103539.56;;;10.27;100.00
50356;BME280;36264;51.296;-0.602;2023-02-12T11:57:44;103538.69;;;10.25;100.00
50356;BME280;36264;51.296;-0.602;2023-02-12T12:02:51;103539.59;;;10.28;100.00
50356;BME280;36264;51.296;-0.602;2023-02-12T12:05:20;103540.41;;;10.27;100.00
50356;BME280;36264;51.296;-0.602;2023-02-12T12:07:54;103537.78;;;10.24;100.00
50356;BME280;36264;51.296;-0.602;2023-02-12T12:13:53;103539.47;;;10.21;100.00
50356;BME280;36264;51.296;-0.602;2023-02-12T12:19:27;103535.13;;;10.21;100.00
50356;BME280;36264;51.296;-0.602;2023-02-12T12:25:25;103517.03;;;10.27;100.00
50356;BME280;36264;51.296;-0.602;2023-02-12T12:33:45;103511.97;;;10.33;100.00
50356;BME280;36264;51.296;-0.602;2023-02-12T12:39:10;103508.59;;;10.38;100.00
50356;BME280;36264;51.296;-0.602;2023-02-12T12:42:35;103502.47;;;10.32;100.00
50356;BME280;36264;51.296;-0.602;2023-02-12T12:44:58;103503.22;;;10.28;100.00
50356;BME280;36264;51.296;-0.602;2023-02-12T12:50:38;103490.97;;;10.21;100.00
50356;BME280;36264;51.296;-0.602;2023-02-12T12:53:23;103490.19;;;10.25;100.00
50356;BME280;36264;51.296;-0.602;2023-02-12T12:56:14;103494.59;;;10.29;100.00
50356;BME280;36264;51.296;-0.602;2023-02-12T13:07:12;103483.41;;;10.35;100.00
50356;BME280;36264;51.296;-0.602;2023-02-12T13:23:37;103477.53;;;10.47;100.00
50356;BME280;36264;51.296;-0.602;2023-02-12T13:26:15;103472.41;;;10.53;100.00
50356;BME280;36264;51.296;-0.602;2023-02-12T13:28:47;103474.19;;;10.59;100.00
50356;BME280;36264;51.296;-0.602;2023-02-12T13:31:17;103465.56;;;10.60;100.00
50356;BME280;36264;51.296;-0.602;2023-02-12T13:33:48;103462.09;;;10.61;100.00
50356;BME280;36264;51.296;-0.602;2023-02-12T13:36:15;103462.06;;;10.59;100.00
50356;BME280;36264;51.296;-0.602;2023-02-12T13:38:49;103461.28;;;10.63;100.00
50356;BME280;36264;51.296;-0.602;2023-02-12T13:41:16;103455.19;;;10.61;100.00
50356;BME280;36264;51.296;-0.602;2023-02-12T13:44:06;103453.50;;;10.66;100.00
50356;BME280;36264;51.296;-0.602;2023-02-12T13:46:54;103450.09;;;10.71;100.00
50356;BME280;36264;51.296;-0.602;2023-02-12T13:52:16;103444.88;;;10.67;100.00
50356;BME280;36264;51.296;-0.602;2023-02-12T13:54:56;103445.63;;;10.60;100.00
50356;BME280;36264;51.296;-0.602;2023-02-12T13:57:26;103442.09;;;10.54;100.00
50356;BME280;36264;51.296;-0.602;2023-02-12T13:59:53;103441.25;;;10.56;100.00
50356;BME280;36264;51.296;-0.602;2023-02-12T14:05:04;103441.28;;;10.59;100.00
50356;BME280;36264;51.296;-0.602;2023-02-12T14:07:41;103432.59;;;10.57;100.00
50356;BME280;36264;51.296;-0.602;2023-02-12T14:13:12;103430.88;;;10.58;100.00
50356;BME280;36264;51.296;-0.602;2023-02-12T14:15:44;103424.81;;;10.57;100.00
50356;BME280;36264;51.296;-0.602;2023-02-12T14:18:21;103430.84;;;10.56;100.00
50356;BME280;36264;51.296;-0.602;2023-02-12T14:20:47;103429.91;;;10.49;100.00
50356;BME280;36264;51.296;-0.602;2023-02-12T14:23:23;103425.59;;;10.50;100.00
50356;BME280;36264;51.296;-0.602;2023-02-12T14:31:20;103425.63;;;10.53;100.00
50356;BME280;36264;51.296;-0.602;2023-02-12T14:33:51;103419.50;;;10.49;100.00
50356;BME280;36264;51.296;-0.602;2023-02-12T14:39:03;103417.81;;;10.50;100.00
50356;BME280;36264;51.296;-0.602;2023-02-12T14:41:37;103422.97;;;10.48;100.00
50356;BME280;36264;51.296;-0.602;2023-02-12T14:46:59;103423.84;;;10.49;100.00
50356;BME280;36264;51.296;-0.602;2023-02-12T14:49:45;103416.91;;;10.49;100.00
50356;BME280;36264;51.296;-0.602;2023-02-12T14:52:14;103416.00;;;10.44;100.00
50356;BME280;36264;51.296;-0.602;2023-02-12T14:57:22;103410.81;;;10.46;100.00
50356;BME280;36264;51.296;-0.602;2023-02-12T14:59:51;103406.44;;;10.43;100.00
50356;BME280;36264;51.296;-0.602;2023-02-12T15:02:30;103409.97;;;10.47;100.00
50356;BME280;36264;51.296;-0.602;2023-02-12T15:05:24;103412.59;;;10.48;100.00
50356;BME280;36264;51.296;-0.602;2023-02-12T15:07:54;103398.66;;;10.43;100.00
50356;BME280;36264;51.296;-0.602;2023-02-12T15:10:27;103394.34;;;10.44;100.00
50356;BME280;36264;51.296;-0.602;2023-02-12T15:15:46;103385.56;;;10.36;100.00
50356;BME280;36264;51.296;-0.602;2023-02-12T15:18:29;103389.19;;;10.47;100.00
50356;BME280;36264;51.296;-0.602;2023-02-12T15:23:56;103384.81;;;10.46;100.00
50356;BME280;36264;51.296;-0.602;2023-02-12T15:26:23;103386.56;;;10.45;100.00
50356;BME280;36264;51.296;-0.602;2023-02-12T15:28:51;103387.41;;;10.44;100.00